sensor_id;sensor_type;location;lat;lon;timestamp;P1;durP1;ratioP1;P2;durP2;ratioP2
22034;SDS011;11181;51.002;4.356;2023-06-22T00:02:16;7.13;;;3.78;;
22034;SDS011;11181;51.002;4.356;2023-06-22T00:04:43;6.95;;;3.88;;
22034;SDS011;11181;51.002;4.356;2023-06-22T00:07:10;6.32;;;4.38;;
22034;SDS011;11181;51.002;4.356;2023-06-22T00:09:37;4.07;;;3.28;;
22034;SDS011;11181;51.002;4.356;2023-06-22T00:12:06;5.75;;;3.50;;
22034;SDS011;11181;51.002;4.356;2023-06-22T00:14:33;5.32;;;3.70;;
22034;SDS011;11181;51.002;4.356;2023-06-22T00:17:01;4.25;;;3.70;;
22034;SDS011;11181;51.002;4.356;2023-06-22T00:19:28;6.10;;;4.50;;
22034;SDS011;11181;51.002;4.356;2023-06-22T00:52:21;6.15;;;4.18;;
22034;SDS011;11181;51.002;4.356;2023-06-22T00:54:54;5.22;;;4.22;;
22034;SDS011;11181;51.002;4.356;2023-06-22T00:57:22;5.90;;;3.78;;
22034;SDS011;11181;51.002;4.356;2023-06-22T00:59:53;5.38;;;4.10;;
22034;SDS011;11181;51.002;4.356;2023-06-22T01:02:20;4.90;;;3.63;;
22034;SDS011;11181;51.002;4.356;2023-06-22T01:04:47;5.00;;;3.78;;
22034;SDS011;11181;51.002;4.356;2023-06-22T01:07:17;5.70;;;4.00;;
22034;SDS011;11181;51.002;4.356;2023-06-22T01:09:56;4.43;;;3.90;;
22034;SDS011;11181;51.002;4.356;2023-06-22T01:12:30;4.95;;;3.70;;
22034;SDS011;11181;51.002;4.356;2023-06-22T01:15:04;5.93;;;3.30;;
22034;SDS011;11181;51.002;4.356;2023-06-22T01:17:34;6.75;;;4.15;;
22034;SDS011;11181;51.002;4.356;2023-06-22T01:20:04;6.63;;;4.07;;
22034;SDS011;11181;51.002;4.356;2023-06-22T01:22:38;4.45;;;3.70;;
22034;SDS011;11181;51.002;4.356;2023-06-22T01:25:18;7.15;;;3.75;;
22034;SDS011;11181;51.002;4.356;2023-06-22T01:27:53;4.72;;;3.17;;
22034;SDS011;11181;51.002;4.356;2023-06-22T01:30:30;4.50;;;3.60;;
22034;SDS011;11181;51.002;4.356;2023-06-22T01:33:00;5.13;;;3.72;;
22034;SDS011;11181;51.002;4.356;2023-06-22T01:35:30;5.05;;;4.25;;
22034;SDS011;11181;51.002;4.356;2023-06-22T01:37:58;4.63;;;3.78;;
22034;SDS011;11181;51.002;4.356;2023-06-22T01:40:25;3.97;;;3.08;;
22034;SDS011;11181;51.002;4.356;2023-06-22T01:42:54;4.13;;;3.47;;
22034;SDS011;11181;51.002;4.356;2023-06-22T01:45:21;4.25;;;3.47;;
22034;SDS011;11181;51.002;4.356;2023-06-22T01:47:50;5.13;;;3.70;;
22034;SDS011;11181;51.002;4.356;2023-06-22T01:50:17;6.22;;;3.35;;
22034;SDS011;11181;51.002;4.356;2023-06-22T01:52:44;4.32;;;3.60;;
22034;SDS011;11181;51.002;4.356;2023-06-22T01:55:11;4.65;;;3.33;;
22034;SDS011;11181;51.002;4.356;2023-06-22T01:57:38;8.65;;;3.70;;
22034;SDS011;11181;51.002;4.356;2023-06-22T02:00:06;4.35;;;3.45;;
22034;SDS011;11181;51.002;4.356;2023-06-22T02:02:38;6.93;;;3.80;;
22034;SDS011;11181;51.002;4.356;2023-06-22T02:05:10;4.65;;;3.40;;
22034;SDS011;11181;51.002;4.356;2023-06-22T02:07:44;4.63;;;3.58;;
22034;SDS011;11181;51.002;4.356;2023-06-22T02:10:13;5.30;;;3.50;;
22034;SDS011;11181;51.002;4.356;2023-06-22T02:12:43;5.22;;;4.30;;
22034;SDS011;11181;51.002;4.356;2023-06-22T02:15:11;4.07;;;3.25;;
22034;SDS011;11181;51.002;4.356;2023-06-22T02:17:39;6.15;;;3.83;;
22034;SDS011;11181;51.002;4.356;2023-06-22T02:20:13;5.50;;;3.22;;
22034;SDS011;11181;51.002;4.356;2023-06-22T02:22:40;4.30;;;3.90;;
22034;SDS011;11181;51.002;4.356;2023-06-22T02:25:07;5.97;;;3.70;;
22034;SDS011;11181;51.002;4.356;2023-06-22T02:27:34;5.93;;;3.92;;
22034;SDS011;11181;51.002;4.356;2023-06-22T02:30:01;6.90;;;4.00;;
22034;SDS011;11181;51.002;4.356;2023-06-22T02:32:29;5.53;;;4.45;;
22034;SDS011;11181;51.002;4.356;2023-06-22T02:34:55;6.22;;;3.33;;
22034;SDS011;11181;51.002;4.356;2023-06-22T02:37:24;7.63;;;4.07;;
22034;SDS011;11181;51.002;4.356;2023-06-22T02:39:54;5.05;;;3.40;;
22034;SDS011;11181;51.002;4.356;2023-06-22T02:42:21;6.68;;;4.32;;
22034;SDS011;11181;51.002;4.356;2023-06-22T02:44:50;5.80;;;3.97;;
22034;SDS011;11181;51.002;4.356;2023-06-22T02:47:17;5.22;;;3.60;;
22034;SDS011;11181;51.002;4.356;2023-06-22T02:49:44;7.05;;;4.22;;
22034;SDS011;11181;51.002;4.356;2023-06-22T02:52:11;5.28;;;4.38;;
22034;SDS011;11181;51.002;4.356;2023-06-22T02:54:40;5.80;;;4.38;;
22034;SDS011;11181;51.002;4.356;2023-06-22T02:57:07;3.78;;;3.25;;
22034;SDS011;11181;51.002;4.356;2023-06-22T02:59:38;5.65;;;3.58;;
22034;SDS011;11181;51.002;4.356;2023-06-22T03:02:06;6.03;;;4.30;;
22034;SDS011;11181;51.002;4.356;2023-06-22T03:04:33;6.47;;;4.30;;
22034;SDS011;11181;51.002;4.356;2023-06-22T03:07:00;6.27;;;4.43;;
22034;SDS011;11181;51.002;4.356;2023-06-22T03:09:28;5.05;;;3.80;;
22034;SDS011;11181;51.002;4.356;2023-06-22T03:11:56;4.28;;;3.75;;
22034;SDS011;11181;51.002;4.356;2023-06-22T03:14:23;6.30;;;4.60;;
22034;SDS011;11181;51.002;4.356;2023-06-22T03:16:50;8.13;;;4.30;;
22034;SDS011;11181;51.002;4.356;2023-06-22T03:19:17;4.83;;;4.23;;
22034;SDS011;11181;51.002;4.356;2023-06-22T03:21:44;5.50;;;3.97;;
22034;SDS011;11181;51.002;4.356;2023-06-22T03:24:11;5.87;;;4.63;;
22034;SDS011;11181;51.002;4.356;2023-06-22T03:26:38;8.90;;;4.73;;
22034;SDS011;11181;51.002;4.356;2023-06-22T03:29:06;8.83;;;4.73;;
22034;SDS011;11181;51.002;4.356;2023-06-22T03:31:33;8.13;;;4.88;;
22034;SDS011;11181;51.002;4.356;2023-06-22T03:34:03;8.17;;;5.17;;
22034;SDS011;11181;51.002;4.356;2023-06-22T03:36:32;8.57;;;5.77;;
22034;SDS011;11181;51.002;4.356;2023-06-22T03:38:59;10.60;;;5.83;;
22034;SDS011;11181;51.002;4.356;2023-06-22T03:41:26;9.73;;;5.53;;
22034;SDS011;11181;51.002;4.356;2023-06-22T03:43:53;14.67;;;5.77;;
22034;SDS011;11181;51.002;4.356;2023-06-22T03:46:21;8.87;;;5.30;;
22034;SDS011;11181;51.002;4.356;2023-06-22T03:48:48;9.17;;;6.10;;
22034;SDS011;11181;51.002;4.356;2023-06-22T03:51:15;7.43;;;5.63;;
22034;SDS011;11181;51.002;4.356;2023-06-22T03:53:42;12.00;;;6.18;;
22034;SDS011;11181;51.002;4.356;2023-06-22T03:56:09;7.77;;;5.60;;
22034;SDS011;11181;51.002;4.356;2023-06-22T03:58:36;9.10;;;5.40;;
22034;SDS011;11181;51.002;4.356;2023-06-22T04:01:07;8.67;;;6.20;;
22034;SDS011;11181;51.002;4.356;2023-06-22T04:03:38;10.63;;;6.03;;
22034;SDS011;11181;51.002;4.356;2023-06-22T04:06:05;10.93;;;6.87;;
22034;SDS011;11181;51.002;4.356;2023-06-22T04:08:32;17.80;;;6.93;;
22034;SDS011;11181;51.002;4.356;2023-06-22T04:10:59;10.07;;;6.63;;
22034;SDS011;11181;51.002;4.356;2023-06-22T04:13:25;10.70;;;6.80;;
22034;SDS011;11181;51.002;4.356;2023-06-22T04:15:52;12.97;;;7.17;;
22034;SDS011;11181;51.002;4.356;2023-06-22T04:18:19;8.80;;;6.60;;
22034;SDS011;11181;51.002;4.356;2023-06-22T04:20:47;8.20;;;6.70;;
22034;SDS011;11181;51.002;4.356;2023-06-22T04:23:14;8.67;;;5.93;;
22034;SDS011;11181;51.002;4.356;2023-06-22T04:25:41;11.77;;;6.67;;
22034;SDS011;11181;51.002;4.356;2023-06-22T04:28:08;11.13;;;6.67;;
22034;SDS011;11181;51.002;4.356;2023-06-22T04:30:37;7.27;;;6.10;;
22034;SDS011;11181;51.002;4.356;2023-06-22T04:33:12;8.27;;;5.60;;
22034;SDS011;11181;51.002;4.356;2023-06-22T04:35:39;10.67;;;7.30;;
22034;SDS011;11181;51.002;4.356;2023-06-22T04:38:07;12.43;;;6.67;;
22034;SDS011;11181;51.002;4.356;2023-06-22T04:40:35;8.57;;;6.77;;
22034;SDS011;11181;51.002;4.356;2023-06-22T04:43:02;11.53;;;7.97;;
22034;SDS011;11181;51.002;4.356;2023-06-22T04:45:31;10.87;;;7.20;;
22034;SDS011;11181;51.002;4.356;2023-06-22T04:47:58;10.60;;;7.40;;
22034;SDS011;11181;51.002;4.356;2023-06-22T04:50:25;6.80;;;5.90;;
22034;SDS011;11181;51.002;4.356;2023-06-22T04:52:52;12.27;;;7.57;;
22034;SDS011;11181;51.002;4.356;2023-06-22T04:55:20;8.63;;;6.57;;
22034;SDS011;11181;51.002;4.356;2023-06-22T04:57:48;8.70;;;6.80;;
22034;SDS011;11181;51.002;4.356;2023-06-22T05:00:15;11.80;;;7.83;;
22034;SDS011;11181;51.002;4.356;2023-06-22T05:02:45;10.83;;;7.80;;
22034;SDS011;11181;51.002;4.356;2023-06-22T05:05:12;14.40;;;8.57;;
22034;SDS011;11181;51.002;4.356;2023-06-22T05:07:41;11.35;;;7.70;;
22034;SDS011;11181;51.002;4.356;2023-06-22T05:10:09;8.02;;;7.05;;
22034;SDS011;11181;51.002;4.356;2023-06-22T05:12:39;13.20;;;8.05;;
22034;SDS011;11181;51.002;4.356;2023-06-22T05:15:06;10.27;;;7.88;;
22034;SDS011;11181;51.002;4.356;2023-06-22T05:17:34;10.70;;;7.13;;
22034;SDS011;11181;51.002;4.356;2023-06-22T05:20:02;13.52;;;8.15;;
22034;SDS011;11181;51.002;4.356;2023-06-22T05:22:31;11.70;;;7.38;;
22034;SDS011;11181;51.002;4.356;2023-06-22T05:24:58;12.38;;;8.45;;
22034;SDS011;11181;51.002;4.356;2023-06-22T05:27:25;9.85;;;7.50;;
22034;SDS011;11181;51.002;4.356;2023-06-22T05:29:53;13.95;;;8.68;;
22034;SDS011;11181;51.002;4.356;2023-06-22T05:32:20;10.40;;;8.65;;
22034;SDS011;11181;51.002;4.356;2023-06-22T05:34:47;10.63;;;9.13;;
22034;SDS011;11181;51.002;4.356;2023-06-22T05:37:14;10.43;;;8.65;;
22034;SDS011;11181;51.002;4.356;2023-06-22T05:39:41;10.38;;;7.32;;
22034;SDS011;11181;51.002;4.356;2023-06-22T05:42:08;12.40;;;8.05;;
22034;SDS011;11181;51.002;4.356;2023-06-22T05:44:35;11.20;;;8.35;;
22034;SDS011;11181;51.002;4.356;2023-06-22T05:47:04;10.60;;;8.82;;
22034;SDS011;11181;51.002;4.356;2023-06-22T05:49:33;13.02;;;8.95;;
22034;SDS011;11181;51.002;4.356;2023-06-22T05:52:00;11.13;;;7.53;;
22034;SDS011;11181;51.002;4.356;2023-06-22T05:54:27;12.57;;;9.18;;
22034;SDS011;11181;51.002;4.356;2023-06-22T05:56:54;8.50;;;6.45;;
22034;SDS011;11181;51.002;4.356;2023-06-22T05:59:21;11.55;;;8.45;;
22034;SDS011;11181;51.002;4.356;2023-06-22T06:01:48;12.30;;;9.05;;
22034;SDS011;11181;51.002;4.356;2023-06-22T06:04:17;11.20;;;8.68;;
22034;SDS011;11181;51.002;4.356;2023-06-22T06:06:45;15.05;;;9.52;;
22034;SDS011;11181;51.002;4.356;2023-06-22T06:09:12;13.75;;;9.95;;
22034;SDS011;11181;51.002;4.356;2023-06-22T06:11:40;11.93;;;9.18;;
22034;SDS011;11181;51.002;4.356;2023-06-22T06:14:07;12.35;;;10.02;;
22034;SDS011;11181;51.002;4.356;2023-06-22T06:16:34;15.77;;;10.07;;
22034;SDS011;11181;51.002;4.356;2023-06-22T06:19:01;13.32;;;9.48;;
22034;SDS011;11181;51.002;4.356;2023-06-22T06:21:29;12.77;;;9.80;;
22034;SDS011;11181;51.002;4.356;2023-06-22T06:23:56;13.60;;;9.85;;
22034;SDS011;11181;51.002;4.356;2023-06-22T06:26:23;15.40;;;10.52;;
22034;SDS011;11181;51.002;4.356;2023-06-22T06:28:55;14.68;;;10.30;;
22034;SDS011;11181;51.002;4.356;2023-06-22T06:31:23;14.23;;;10.18;;
22034;SDS011;11181;51.002;4.356;2023-06-22T06:33:52;12.70;;;10.85;;
22034;SDS011;11181;51.002;4.356;2023-06-22T06:36:20;12.13;;;10.02;;
22034;SDS011;11181;51.002;4.356;2023-06-22T06:38:48;14.75;;;10.32;;
22034;SDS011;11181;51.002;4.356;2023-06-22T06:41:15;13.00;;;10.50;;
22034;SDS011;11181;51.002;4.356;2023-06-22T06:43:42;12.45;;;10.02;;
22034;SDS011;11181;51.002;4.356;2023-06-22T06:46:10;14.07;;;10.02;;
22034;SDS011;11181;51.002;4.356;2023-06-22T06:48:37;15.35;;;11.50;;
22034;SDS011;11181;51.002;4.356;2023-06-22T06:51:04;13.18;;;9.95;;
22034;SDS011;11181;51.002;4.356;2023-06-22T06:53:34;14.55;;;10.55;;
22034;SDS011;11181;51.002;4.356;2023-06-22T06:56:03;17.90;;;11.90;;
22034;SDS011;11181;51.002;4.356;2023-06-22T06:58:30;12.60;;;11.18;;
22034;SDS011;11181;51.002;4.356;2023-06-22T07:00:57;20.25;;;11.60;;
22034;SDS011;11181;51.002;4.356;2023-06-22T07:03:24;19.23;;;12.68;;
22034;SDS011;11181;51.002;4.356;2023-06-22T07:05:51;18.20;;;11.85;;
22034;SDS011;11181;51.002;4.356;2023-06-22T07:08:18;15.07;;;11.85;;
22034;SDS011;11181;51.002;4.356;2023-06-22T07:10:45;13.40;;;10.68;;
22034;SDS011;11181;51.002;4.356;2023-06-22T07:13:14;14.52;;;11.43;;
22034;SDS011;11181;51.002;4.356;2023-06-22T07:15:41;13.23;;;11.07;;
22034;SDS011;11181;51.002;4.356;2023-06-22T07:18:08;14.40;;;11.18;;
22034;SDS011;11181;51.002;4.356;2023-06-22T07:20:35;15.60;;;11.13;;
22034;SDS011;11181;51.002;4.356;2023-06-22T07:23:02;14.18;;;11.85;;
22034;SDS011;11181;51.002;4.356;2023-06-22T07:25:28;14.18;;;11.65;;
22034;SDS011;11181;51.002;4.356;2023-06-22T07:27:59;18.05;;;11.73;;
22034;SDS011;11181;51.002;4.356;2023-06-22T07:30:29;18.73;;;12.25;;
22034;SDS011;11181;51.002;4.356;2023-06-22T07:32:57;16.75;;;13.25;;
22034;SDS011;11181;51.002;4.356;2023-06-22T07:35:28;16.27;;;11.18;;
22034;SDS011;11181;51.002;4.356;2023-06-22T07:37:55;13.82;;;12.32;;
22034;SDS011;11181;51.002;4.356;2023-06-22T07:40:22;21.65;;;12.50;;
22034;SDS011;11181;51.002;4.356;2023-06-22T07:42:49;12.82;;;11.18;;
22034;SDS011;11181;51.002;4.356;2023-06-22T07:45:16;12.07;;;10.63;;
22034;SDS011;11181;51.002;4.356;2023-06-22T07:47:45;11.07;;;9.93;;
22034;SDS011;11181;51.002;4.356;2023-06-22T07:50:12;16.05;;;12.25;;
22034;SDS011;11181;51.002;4.356;2023-06-22T07:52:39;15.32;;;12.32;;
22034;SDS011;11181;51.002;4.356;2023-06-22T07:55:06;12.77;;;11.43;;
22034;SDS011;11181;51.002;4.356;2023-06-22T07:57:33;14.23;;;11.88;;
22034;SDS011;11181;51.002;4.356;2023-06-22T08:00:02;12.65;;;10.00;;
22034;SDS011;11181;51.002;4.356;2023-06-22T08:02:36;11.95;;;10.65;;
22034;SDS011;11181;51.002;4.356;2023-06-22T08:05:05;17.20;;;11.80;;
22034;SDS011;11181;51.002;4.356;2023-06-22T08:07:33;11.70;;;9.45;;
22034;SDS011;11181;51.002;4.356;2023-06-22T08:10:00;13.48;;;11.85;;
22034;SDS011;11181;51.002;4.356;2023-06-22T08:12:27;12.20;;;9.80;;
22034;SDS011;11181;51.002;4.356;2023-06-22T08:14:54;16.38;;;12.32;;
22034;SDS011;11181;51.002;4.356;2023-06-22T08:17:22;14.13;;;11.32;;
22034;SDS011;11181;51.002;4.356;2023-06-22T08:19:48;12.50;;;11.10;;
22034;SDS011;11181;51.002;4.356;2023-06-22T08:22:17;15.73;;;10.38;;
22034;SDS011;11181;51.002;4.356;2023-06-22T08:24:44;13.40;;;10.73;;
22034;SDS011;11181;51.002;4.356;2023-06-22T08:27:10;11.20;;;10.00;;
22034;SDS011;11181;51.002;4.356;2023-06-22T08:29:38;14.95;;;12.18;;
22034;SDS011;11181;51.002;4.356;2023-06-22T08:32:07;11.75;;;10.55;;
22034;SDS011;11181;51.002;4.356;2023-06-22T08:34:35;14.07;;;10.82;;
22034;SDS011;11181;51.002;4.356;2023-06-22T08:37:02;14.48;;;11.63;;
22034;SDS011;11181;51.002;4.356;2023-06-22T08:39:32;12.73;;;11.27;;
22034;SDS011;11181;51.002;4.356;2023-06-22T08:42:00;12.23;;;11.02;;
22034;SDS011;11181;51.002;4.356;2023-06-22T08:44:26;12.02;;;10.70;;
22034;SDS011;11181;51.002;4.356;2023-06-22T08:52:01;16.45;;;11.13;;
22034;SDS011;11181;51.002;4.356;2023-06-22T08:54:27;15.55;;;10.98;;
22034;SDS011;11181;51.002;4.356;2023-06-22T08:56:56;11.00;;;9.85;;
22034;SDS011;11181;51.002;4.356;2023-06-22T08:59:23;11.65;;;10.00;;
22034;SDS011;11181;51.002;4.356;2023-06-22T09:01:49;13.82;;;11.70;;
22034;SDS011;11181;51.002;4.356;2023-06-22T09:04:16;12.40;;;9.82;;
22034;SDS011;11181;51.002;4.356;2023-06-22T09:06:43;12.90;;;11.13;;
22034;SDS011;11181;51.002;4.356;2023-06-22T09:09:12;11.18;;;10.07;;
22034;SDS011;11181;51.002;4.356;2023-06-22T09:11:39;14.25;;;10.80;;
22034;SDS011;11181;51.002;4.356;2023-06-22T09:14:08;11.35;;;10.15;;
22034;SDS011;11181;51.002;4.356;2023-06-22T09:16:35;13.45;;;11.48;;
22034;SDS011;11181;51.002;4.356;2023-06-22T09:19:02;11.77;;;10.00;;
22034;SDS011;11181;51.002;4.356;2023-06-22T09:21:29;13.57;;;11.40;;
22034;SDS011;11181;51.002;4.356;2023-06-22T09:23:56;13.70;;;10.20;;
22034;SDS011;11181;51.002;4.356;2023-06-22T09:26:23;13.27;;;11.23;;
22034;SDS011;11181;51.002;4.356;2023-06-22T09:28:50;12.60;;;10.77;;
22034;SDS011;11181;51.002;4.356;2023-06-22T09:31:18;12.98;;;10.35;;
22034;SDS011;11181;51.002;4.356;2023-06-22T09:33:50;13.82;;;10.73;;
22034;SDS011;11181;51.002;4.356;2023-06-22T09:36:18;13.02;;;11.00;;
22034;SDS011;11181;51.002;4.356;2023-06-22T09:38:45;11.65;;;9.45;;
22034;SDS011;11181;51.002;4.356;2023-06-22T09:41:12;13.52;;;11.02;;
22034;SDS011;11181;51.002;4.356;2023-06-22T09:43:39;15.65;;;10.50;;
22034;SDS011;11181;51.002;4.356;2023-06-22T09:46:06;11.88;;;10.38;;
22034;SDS011;11181;51.002;4.356;2023-06-22T09:48:36;15.32;;;11.05;;
22034;SDS011;11181;51.002;4.356;2023-06-22T09:51:03;12.23;;;10.07;;
22034;SDS011;11181;51.002;4.356;2023-06-22T09:53:30;11.23;;;9.55;;
22034;SDS011;11181;51.002;4.356;2023-06-22T09:55:57;12.93;;;10.50;;
22034;SDS011;11181;51.002;4.356;2023-06-22T09:58:24;12.40;;;10.48;;
22034;SDS011;11181;51.002;4.356;2023-06-22T10:00:51;12.75;;;10.00;;
22034;SDS011;11181;51.002;4.356;2023-06-22T10:03:19;14.15;;;10.13;;
22034;SDS011;11181;51.002;4.356;2023-06-22T10:05:47;16.48;;;10.70;;
22034;SDS011;11181;51.002;4.356;2023-06-22T10:08:14;14.88;;;11.90;;
22034;SDS011;11181;51.002;4.356;2023-06-22T10:10:41;14.20;;;10.48;;
22034;SDS011;11181;51.002;4.356;2023-06-22T10:13:09;14.70;;;10.65;;
22034;SDS011;11181;51.002;4.356;2023-06-22T10:15:36;13.93;;;9.77;;
22034;SDS011;11181;51.002;4.356;2023-06-22T10:18:03;13.10;;;10.48;;
22034;SDS011;11181;51.002;4.356;2023-06-22T10:20:30;14.18;;;11.27;;
22034;SDS011;11181;51.002;4.356;2023-06-22T10:22:59;15.55;;;11.00;;
22034;SDS011;11181;51.002;4.356;2023-06-22T10:25:26;18.05;;;11.43;;
22034;SDS011;11181;51.002;4.356;2023-06-22T10:27:53;14.95;;;11.02;;
22034;SDS011;11181;51.002;4.356;2023-06-22T10:30:19;13.90;;;11.82;;
22034;SDS011;11181;51.002;4.356;2023-06-22T10:32:46;13.32;;;11.98;;
22034;SDS011;11181;51.002;4.356;2023-06-22T10:35:13;17.92;;;12.55;;
22034;SDS011;11181;51.002;4.356;2023-06-22T10:37:43;18.30;;;13.38;;
22034;SDS011;11181;51.002;4.356;2023-06-22T10:40:12;17.10;;;13.13;;
22034;SDS011;11181;51.002;4.356;2023-06-22T10:42:40;17.10;;;14.18;;
22034;SDS011;11181;51.002;4.356;2023-06-22T10:45:07;16.93;;;14.57;;
22034;SDS011;11181;51.002;4.356;2023-06-22T10:47:35;19.80;;;14.70;;
22034;SDS011;11181;51.002;4.356;2023-06-22T10:50:03;16.13;;;14.40;;
22034;SDS011;11181;51.002;4.356;2023-06-22T10:52:30;16.20;;;14.53;;
22034;SDS011;11181;51.002;4.356;2023-06-22T10:54:58;20.63;;;15.77;;
22034;SDS011;11181;51.002;4.356;2023-06-22T10:57:26;16.70;;;14.90;;
22034;SDS011;11181;51.002;4.356;2023-06-22T10:59:53;20.17;;;15.77;;
22034;SDS011;11181;51.002;4.356;2023-06-22T11:02:20;21.30;;;17.53;;
22034;SDS011;11181;51.002;4.356;2023-06-22T11:04:46;19.87;;;16.27;;
22034;SDS011;11181;51.002;4.356;2023-06-22T11:07:15;17.87;;;14.27;;
22034;SDS011;11181;51.002;4.356;2023-06-22T11:09:42;13.87;;;12.17;;
22034;SDS011;11181;51.002;4.356;2023-06-22T11:12:09;16.13;;;12.77;;
22034;SDS011;11181;51.002;4.356;2023-06-22T11:14:38;13.57;;;12.00;;
22034;SDS011;11181;51.002;4.356;2023-06-22T11:17:05;16.10;;;13.13;;
22034;SDS011;11181;51.002;4.356;2023-06-22T11:19:32;16.77;;;13.83;;
22034;SDS011;11181;51.002;4.356;2023-06-22T11:21:59;17.07;;;15.27;;
22034;SDS011;11181;51.002;4.356;2023-06-22T11:24:26;14.93;;;13.03;;
22034;SDS011;11181;51.002;4.356;2023-06-22T11:26:52;17.53;;;14.23;;
22034;SDS011;11181;51.002;4.356;2023-06-22T11:29:19;18.77;;;15.60;;
22034;SDS011;11181;51.002;4.356;2023-06-22T11:31:48;15.87;;;14.17;;
22034;SDS011;11181;51.002;4.356;2023-06-22T11:34:15;19.13;;;15.87;;
22034;SDS011;11181;51.002;4.356;2023-06-22T11:36:42;19.77;;;16.37;;
22034;SDS011;11181;51.002;4.356;2023-06-22T11:39:09;19.53;;;15.93;;
22034;SDS011;11181;51.002;4.356;2023-06-22T11:41:36;19.77;;;15.93;;
22034;SDS011;11181;51.002;4.356;2023-06-22T11:44:04;18.40;;;15.97;;
22034;SDS011;11181;51.002;4.356;2023-06-22T11:46:31;20.87;;;15.40;;
22034;SDS011;11181;51.002;4.356;2023-06-22T11:49:01;19.13;;;14.97;;
22034;SDS011;11181;51.002;4.356;2023-06-22T11:51:28;18.83;;;16.07;;
22034;SDS011;11181;51.002;4.356;2023-06-22T11:53:56;21.93;;;15.97;;
22034;SDS011;11181;51.002;4.356;2023-06-22T11:56:23;17.83;;;15.90;;
22034;SDS011;11181;51.002;4.356;2023-06-22T11:58:50;17.00;;;14.97;;
22034;SDS011;11181;51.002;4.356;2023-06-22T12:01:17;18.13;;;14.93;;
22034;SDS011;11181;51.002;4.356;2023-06-22T12:03:44;17.73;;;15.20;;
22034;SDS011;11181;51.002;4.356;2023-06-22T12:06:12;16.73;;;14.93;;
22034;SDS011;11181;51.002;4.356;2023-06-22T12:08:39;17.40;;;15.53;;
22034;SDS011;11181;51.002;4.356;2023-06-22T12:11:06;16.50;;;14.80;;
22034;SDS011;11181;51.002;4.356;2023-06-22T12:13:33;22.07;;;15.70;;
22034;SDS011;11181;51.002;4.356;2023-06-22T12:16:00;17.70;;;15.13;;
22034;SDS011;11181;51.002;4.356;2023-06-22T12:18:26;18.57;;;15.93;;
22034;SDS011;11181;51.002;4.356;2023-06-22T12:20:53;18.80;;;16.00;;
22034;SDS011;11181;51.002;4.356;2023-06-22T12:23:21;18.93;;;16.93;;
22034;SDS011;11181;51.002;4.356;2023-06-22T12:25:48;18.90;;;16.57;;
22034;SDS011;11181;51.002;4.356;2023-06-22T12:28:15;21.37;;;16.43;;
22034;SDS011;11181;51.002;4.356;2023-06-22T12:30:42;22.40;;;15.30;;
22034;SDS011;11181;51.002;4.356;2023-06-22T12:33:09;19.80;;;16.87;;
22034;SDS011;11181;51.002;4.356;2023-06-22T12:35:36;19.90;;;16.00;;
22034;SDS011;11181;51.002;4.356;2023-06-22T12:38:03;23.87;;;16.80;;
22034;SDS011;11181;51.002;4.356;2023-06-22T12:40:32;19.63;;;17.20;;
22034;SDS011;11181;51.002;4.356;2023-06-22T12:42:59;20.90;;;16.97;;
22034;SDS011;11181;51.002;4.356;2023-06-22T12:45:27;21.00;;;18.20;;
22034;SDS011;11181;51.002;4.356;2023-06-22T12:47:56;21.77;;;17.97;;
22034;SDS011;11181;51.002;4.356;2023-06-22T12:50:24;22.10;;;17.67;;
22034;SDS011;11181;51.002;4.356;2023-06-22T12:52:51;22.73;;;18.70;;
22034;SDS011;11181;51.002;4.356;2023-06-22T12:55:18;20.53;;;17.00;;
22034;SDS011;11181;51.002;4.356;2023-06-22T12:57:47;25.53;;;18.33;;
22034;SDS011;11181;51.002;4.356;2023-06-22T13:00:14;21.10;;;17.20;;
22034;SDS011;11181;51.002;4.356;2023-06-22T13:02:41;20.57;;;18.23;;
22034;SDS011;11181;51.002;4.356;2023-06-22T13:05:08;20.73;;;17.03;;
22034;SDS011;11181;51.002;4.356;2023-06-22T13:07:35;23.70;;;17.67;;
22034;SDS011;11181;51.002;4.356;2023-06-22T13:10:02;21.17;;;18.47;;
22034;SDS011;11181;51.002;4.356;2023-06-22T13:12:30;19.30;;;15.93;;
22034;SDS011;11181;51.002;4.356;2023-06-22T13:14:58;19.40;;;16.03;;
22034;SDS011;11181;51.002;4.356;2023-06-22T13:17:25;18.37;;;13.80;;
22034;SDS011;11181;51.002;4.356;2023-06-22T13:19:52;18.97;;;15.83;;
22034;SDS011;11181;51.002;4.356;2023-06-22T13:22:29;19.47;;;15.80;;
22034;SDS011;11181;51.002;4.356;2023-06-22T13:24:57;18.07;;;15.97;;
22034;SDS011;11181;51.002;4.356;2023-06-22T13:27:24;21.87;;;17.70;;
22034;SDS011;11181;51.002;4.356;2023-06-22T13:29:51;19.27;;;15.13;;
22034;SDS011;11181;51.002;4.356;2023-06-22T13:32:20;21.90;;;16.13;;
22034;SDS011;11181;51.002;4.356;2023-06-22T13:34:46;18.67;;;15.87;;
22034;SDS011;11181;51.002;4.356;2023-06-22T13:37:13;19.93;;;16.77;;
22034;SDS011;11181;51.002;4.356;2023-06-22T13:39:40;20.77;;;15.93;;
22034;SDS011;11181;51.002;4.356;2023-06-22T13:42:08;18.87;;;15.90;;
22034;SDS011;11181;51.002;4.356;2023-06-22T13:44:35;24.10;;;17.23;;
22034;SDS011;11181;51.002;4.356;2023-06-22T13:47:02;23.20;;;16.50;;
22034;SDS011;11181;51.002;4.356;2023-06-22T13:49:31;17.83;;;16.00;;
22034;SDS011;11181;51.002;4.356;2023-06-22T13:51:58;21.37;;;17.00;;
22034;SDS011;11181;51.002;4.356;2023-06-22T13:54:25;19.60;;;16.67;;
22034;SDS011;11181;51.002;4.356;2023-06-22T13:56:52;21.40;;;19.10;;
22034;SDS011;11181;51.002;4.356;2023-06-22T13:59:19;21.40;;;16.57;;
22034;SDS011;11181;51.002;4.356;2023-06-22T14:01:46;22.03;;;17.27;;
22034;SDS011;11181;51.002;4.356;2023-06-22T14:04:13;24.70;;;17.50;;
22034;SDS011;11181;51.002;4.356;2023-06-22T14:06:41;23.40;;;18.83;;
22034;SDS011;11181;51.002;4.356;2023-06-22T14:09:08;25.17;;;18.30;;
22034;SDS011;11181;51.002;4.356;2023-06-22T14:11:35;20.60;;;18.07;;
22034;SDS011;11181;51.002;4.356;2023-06-22T14:14:02;20.77;;;18.20;;
22034;SDS011;11181;51.002;4.356;2023-06-22T14:16:29;25.20;;;19.37;;
22034;SDS011;11181;51.002;4.356;2023-06-22T14:18:56;23.97;;;20.00;;
22034;SDS011;11181;51.002;4.356;2023-06-22T14:21:23;25.27;;;20.77;;
22034;SDS011;11181;51.002;4.356;2023-06-22T14:23:51;25.03;;;20.77;;
22034;SDS011;11181;51.002;4.356;2023-06-22T14:26:18;26.30;;;22.83;;
22034;SDS011;11181;51.002;4.356;2023-06-22T14:28:45;33.17;;;25.83;;
22034;SDS011;11181;51.002;4.356;2023-06-22T14:31:13;30.40;;;24.87;;
22034;SDS011;11181;51.002;4.356;2023-06-22T14:33:40;30.77;;;26.40;;
22034;SDS011;11181;51.002;4.356;2023-06-22T14:36:12;33.73;;;26.40;;
22034;SDS011;11181;51.002;4.356;2023-06-22T14:38:39;30.87;;;26.37;;
22034;SDS011;11181;51.002;4.356;2023-06-22T14:41:07;34.73;;;27.00;;
22034;SDS011;11181;51.002;4.356;2023-06-22T14:43:34;31.20;;;24.40;;
22034;SDS011;11181;51.002;4.356;2023-06-22T14:46:01;31.60;;;24.07;;
22034;SDS011;11181;51.002;4.356;2023-06-22T14:48:28;29.47;;;24.57;;
22034;SDS011;11181;51.002;4.356;2023-06-22T14:50:55;28.70;;;24.03;;
22034;SDS011;11181;51.002;4.356;2023-06-22T14:53:22;27.70;;;24.73;;
22034;SDS011;11181;51.002;4.356;2023-06-22T14:55:51;31.10;;;23.97;;
22034;SDS011;11181;51.002;4.356;2023-06-22T14:58:20;29.93;;;23.80;;
22034;SDS011;11181;51.002;4.356;2023-06-22T15:00:47;30.53;;;23.37;;
22034;SDS011;11181;51.002;4.356;2023-06-22T15:03:14;31.60;;;24.97;;
22034;SDS011;11181;51.002;4.356;2023-06-22T15:05:46;27.73;;;22.67;;
22034;SDS011;11181;51.002;4.356;2023-06-22T15:08:13;26.67;;;22.60;;
22034;SDS011;11181;51.002;4.356;2023-06-22T15:10:40;27.40;;;22.33;;